Tipton, United Kingdom
Current Conditions -  °F | °C
As of 9:20 AM on Wednesday 22 Oct 2014 (Local Time) from EGBB Reporting Station
Clear Clear  
Wind Chill: 46°   Ceiling: Unl
Heat Index: 48°   Visibility: 6mi
Dew Point: 41°   Wind: 5mph
Humidity: 76%   Direction: 240°WSW
Pressure: 30.27"   Gusts: NA
Location:  52.54°N, 2.04°W
Report Text: EGBB 220820Z 24004KT 190V280 CAVOK 09/05 Q1025
Loading
Personal Weather Stations






























Interactive Weather Map New forecast layout! Learn more

10-Day Weather Forecast

Advertisements
Track Severe Weather on mobile